Boncarbo, Colorado
Current Conditions -  °F | °C
As of 8:54 AM on Thursday 18 Dec 2014 (Local Time) from KTAD Reporting Station
Clear Clear  
Wind Chill: 26°   Ceiling: Unl
Heat Index: 32°   Visibility: 10mi
Dew Point: 25°   Wind: 7mph
Humidity: 75%   Direction: 270°W
Pressure: 30.05"   Gusts: NA
Location:  37.22°N, 104.7°W
Report Text: KTAD 181554Z AUTO 27006KT 10SM CLR 00/M04 A3005 RMK AO2 SLP186 T00001039
Loading
Personal Weather Stations






























Interactive Weather Map New forecast layout! Learn more

10-Day Weather Forecast

Advertisements
Track Severe Weather on mobile